sensor_id;sensor_type;location;lat;lon;timestamp;P1;durP1;ratioP1;P2;durP2;ratioP2
42632;SDS011;28261;53.304;-6.284;2022-09-13T00:00:12;10.65;;;4.57;;
42632;SDS011;28261;53.304;-6.284;2022-09-13T00:02:17;13.75;;;5.68;;
42632;SDS011;28261;53.304;-6.284;2022-09-13T00:04:23;10.55;;;5.07;;
42632;SDS011;28261;53.304;-6.284;2022-09-13T00:06:27;13.32;;;4.53;;
42632;SDS011;28261;53.304;-6.284;2022-09-13T00:08:31;11.88;;;4.78;;
42632;SDS011;28261;53.304;-6.284;2022-09-13T00:10:36;11.07;;;5.15;;
42632;SDS011;28261;53.304;-6.284;2022-09-13T00:12:42;7.28;;;4.78;;
42632;SDS011;28261;53.304;-6.284;2022-09-13T00:14:46;15.98;;;5.10;;
42632;SDS011;28261;53.304;-6.284;2022-09-13T00:16:51;11.75;;;5.28;;
42632;SDS011;28261;53.304;-6.284;2022-09-13T00:18:56;11.48;;;4.50;;
42632;SDS011;28261;53.304;-6.284;2022-09-13T00:21:04;9.05;;;5.10;;
42632;SDS011;28261;53.304;-6.284;2022-09-13T00:23:10;10.07;;;5.13;;
42632;SDS011;28261;53.304;-6.284;2022-09-13T00:25:15;15.20;;;5.68;;
42632;SDS011;28261;53.304;-6.284;2022-09-13T00:27:20;22.20;;;6.65;;
42632;SDS011;28261;53.304;-6.284;2022-09-13T00:29:25;16.05;;;8.35;;
42632;SDS011;28261;53.304;-6.284;2022-09-13T00:31:29;17.10;;;8.93;;
42632;SDS011;28261;53.304;-6.284;2022-09-13T00:33:34;20.95;;;9.98;;
42632;SDS011;28261;53.304;-6.284;2022-09-13T00:35:39;22.52;;;9.82;;
42632;SDS011;28261;53.304;-6.284;2022-09-13T00:37:45;19.02;;;9.57;;
42632;SDS011;28261;53.304;-6.284;2022-09-13T00:39:50;20.80;;;10.75;;
42632;SDS011;28261;53.304;-6.284;2022-09-13T00:41:54;21.00;;;10.02;;
42632;SDS011;28261;53.304;-6.284;2022-09-13T00:43:59;20.25;;;10.00;;
42632;SDS011;28261;53.304;-6.284;2022-09-13T00:46:04;22.45;;;10.90;;
42632;SDS011;28261;53.304;-6.284;2022-09-13T00:48:11;20.65;;;11.32;;
42632;SDS011;28261;53.304;-6.284;2022-09-13T00:50:21;23.92;;;11.48;;
42632;SDS011;28261;53.304;-6.284;2022-09-13T00:52:30;24.55;;;10.27;;
42632;SDS011;28261;53.304;-6.284;2022-09-13T00:54:39;27.67;;;10.48;;
42632;SDS011;28261;53.304;-6.284;2022-09-13T00:56:47;20.73;;;11.02;;
42632;SDS011;28261;53.304;-6.284;2022-09-13T00:58:56;20.88;;;11.45;;
42632;SDS011;28261;53.304;-6.284;2022-09-13T01:01:04;24.23;;;11.18;;
42632;SDS011;28261;53.304;-6.284;2022-09-13T01:03:12;18.08;;;10.30;;
42632;SDS011;28261;53.304;-6.284;2022-09-13T01:05:18;19.02;;;9.65;;
42632;SDS011;28261;53.304;-6.284;2022-09-13T01:07:27;17.48;;;9.98;;
42632;SDS011;28261;53.304;-6.284;2022-09-13T01:09:31;14.82;;;9.57;;
42632;SDS011;28261;53.304;-6.284;2022-09-13T01:11:44;20.65;;;9.00;;
42632;SDS011;28261;53.304;-6.284;2022-09-13T01:13:51;19.10;;;8.93;;
42632;SDS011;28261;53.304;-6.284;2022-09-13T01:15:57;16.65;;;9.00;;
42632;SDS011;28261;53.304;-6.284;2022-09-13T01:18:02;15.48;;;8.38;;
42632;SDS011;28261;53.304;-6.284;2022-09-13T01:20:08;23.35;;;8.50;;
42632;SDS011;28261;53.304;-6.284;2022-09-13T01:22:26;13.15;;;7.28;;
42632;SDS011;28261;53.304;-6.284;2022-09-13T01:24:59;20.27;;;8.93;;
42632;SDS011;28261;53.304;-6.284;2022-09-13T01:27:29;21.52;;;7.90;;
42632;SDS011;28261;53.304;-6.284;2022-09-13T01:32:16;10.15;;;6.65;;
42632;SDS011;28261;53.304;-6.284;2022-09-13T01:34:33;15.82;;;7.32;;
42632;SDS011;28261;53.304;-6.284;2022-09-13T01:36:57;16.67;;;7.28;;
42632;SDS011;28261;53.304;-6.284;2022-09-13T01:39:13;13.65;;;8.02;;
42632;SDS011;28261;53.304;-6.284;2022-09-13T01:41:28;11.25;;;6.93;;
42632;SDS011;28261;53.304;-6.284;2022-09-13T01:43:47;10.48;;;6.43;;
42632;SDS011;28261;53.304;-6.284;2022-09-13T01:46:02;20.17;;;6.63;;
42632;SDS011;28261;53.304;-6.284;2022-09-13T01:48:09;11.60;;;6.10;;
42632;SDS011;28261;53.304;-6.284;2022-09-13T01:50:21;13.07;;;6.13;;
42632;SDS011;28261;53.304;-6.284;2022-09-13T01:52:36;14.95;;;6.70;;
42632;SDS011;28261;53.304;-6.284;2022-09-13T01:54:48;15.50;;;6.97;;
42632;SDS011;28261;53.304;-6.284;2022-09-13T01:57:00;14.95;;;6.07;;
42632;SDS011;28261;53.304;-6.284;2022-09-13T01:59:13;17.15;;;7.20;;
42632;SDS011;28261;53.304;-6.284;2022-09-13T02:01:23;15.60;;;6.30;;
42632;SDS011;28261;53.304;-6.284;2022-09-13T02:03:32;21.00;;;6.45;;
42632;SDS011;28261;53.304;-6.284;2022-09-13T02:05:43;28.30;;;6.40;;
42632;SDS011;28261;53.304;-6.284;2022-09-13T02:07:53;13.43;;;5.82;;
42632;SDS011;28261;53.304;-6.284;2022-09-13T02:10:03;18.25;;;5.95;;
42632;SDS011;28261;53.304;-6.284;2022-09-13T02:12:12;15.90;;;6.47;;
42632;SDS011;28261;53.304;-6.284;2022-09-13T02:14:21;18.73;;;6.32;;
42632;SDS011;28261;53.304;-6.284;2022-09-13T02:16:33;10.38;;;5.65;;
42632;SDS011;28261;53.304;-6.284;2022-09-13T02:18:41;11.27;;;6.43;;
42632;SDS011;28261;53.304;-6.284;2022-09-13T02:20:49;8.73;;;5.25;;
42632;SDS011;28261;53.304;-6.284;2022-09-13T02:22:58;11.27;;;5.93;;
42632;SDS011;28261;53.304;-6.284;2022-09-13T02:25:06;14.35;;;6.00;;
42632;SDS011;28261;53.304;-6.284;2022-09-13T02:27:13;18.00;;;6.07;;
42632;SDS011;28261;53.304;-6.284;2022-09-13T02:29:22;15.77;;;6.20;;
42632;SDS011;28261;53.304;-6.284;2022-09-13T02:31:30;11.82;;;5.60;;
42632;SDS011;28261;53.304;-6.284;2022-09-13T02:33:43;12.50;;;5.53;;
42632;SDS011;28261;53.304;-6.284;2022-09-13T02:35:52;10.15;;;5.32;;
42632;SDS011;28261;53.304;-6.284;2022-09-13T02:38:03;12.05;;;5.60;;
42632;SDS011;28261;53.304;-6.284;2022-09-13T02:40:12;16.02;;;5.10;;
42632;SDS011;28261;53.304;-6.284;2022-09-13T02:42:25;16.95;;;5.15;;
42632;SDS011;28261;53.304;-6.284;2022-09-13T02:44:37;15.52;;;5.13;;
42632;SDS011;28261;53.304;-6.284;2022-09-13T02:46:51;16.60;;;5.47;;
42632;SDS011;28261;53.304;-6.284;2022-09-13T02:49:16;12.60;;;5.13;;
42632;SDS011;28261;53.304;-6.284;2022-09-13T02:51:29;9.88;;;5.00;;
42632;SDS011;28261;53.304;-6.284;2022-09-13T02:53:37;17.00;;;5.35;;
42632;SDS011;28261;53.304;-6.284;2022-09-13T02:55:49;7.63;;;4.68;;
42632;SDS011;28261;53.304;-6.284;2022-09-13T02:57:59;15.35;;;4.78;;
42632;SDS011;28261;53.304;-6.284;2022-09-13T03:00:10;8.88;;;4.07;;
42632;SDS011;28261;53.304;-6.284;2022-09-13T03:02:16;8.00;;;4.72;;
42632;SDS011;28261;53.304;-6.284;2022-09-13T03:04:25;10.68;;;4.45;;
42632;SDS011;28261;53.304;-6.284;2022-09-13T03:06:30;15.52;;;4.55;;
42632;SDS011;28261;53.304;-6.284;2022-09-13T03:08:35;11.73;;;5.47;;
42632;SDS011;28261;53.304;-6.284;2022-09-13T03:10:43;14.23;;;4.50;;
42632;SDS011;28261;53.304;-6.284;2022-09-13T03:15:43;10.52;;;4.55;;
42632;SDS011;28261;53.304;-6.284;2022-09-13T03:17:58;16.35;;;4.47;;
42632;SDS011;28261;53.304;-6.284;2022-09-13T03:20:13;10.48;;;4.15;;
42632;SDS011;28261;53.304;-6.284;2022-09-13T03:22:31;9.88;;;5.05;;
42632;SDS011;28261;53.304;-6.284;2022-09-13T03:25:04;11.90;;;4.50;;
42632;SDS011;28261;53.304;-6.284;2022-09-13T03:27:14;12.75;;;4.88;;
42632;SDS011;28261;53.304;-6.284;2022-09-13T03:29:26;10.88;;;4.78;;
42632;SDS011;28261;53.304;-6.284;2022-09-13T03:31:37;13.85;;;4.55;;
42632;SDS011;28261;53.304;-6.284;2022-09-13T03:33:51;12.73;;;5.03;;
42632;SDS011;28261;53.304;-6.284;2022-09-13T03:36:03;13.45;;;4.47;;
42632;SDS011;28261;53.304;-6.284;2022-09-13T03:38:14;14.98;;;4.32;;
42632;SDS011;28261;53.304;-6.284;2022-09-13T03:40:24;8.05;;;4.78;;
42632;SDS011;28261;53.304;-6.284;2022-09-13T03:42:40;7.70;;;4.32;;
42632;SDS011;28261;53.304;-6.284;2022-09-13T03:44:49;9.65;;;4.63;;
42632;SDS011;28261;53.304;-6.284;2022-09-13T03:46:57;12.75;;;4.88;;
42632;SDS011;28261;53.304;-6.284;2022-09-13T03:49:08;11.15;;;4.00;;
42632;SDS011;28261;53.304;-6.284;2022-09-13T03:51:16;9.63;;;4.32;;
42632;SDS011;28261;53.304;-6.284;2022-09-13T03:53:21;16.05;;;4.80;;
42632;SDS011;28261;53.304;-6.284;2022-09-13T03:55:29;8.20;;;4.40;;
42632;SDS011;28261;53.304;-6.284;2022-09-13T03:57:37;16.40;;;4.82;;
42632;SDS011;28261;53.304;-6.284;2022-09-13T03:59:42;7.43;;;3.95;;
42632;SDS011;28261;53.304;-6.284;2022-09-13T04:01:49;9.95;;;4.18;;
42632;SDS011;28261;53.304;-6.284;2022-09-13T04:03:53;6.88;;;3.80;;
42632;SDS011;28261;53.304;-6.284;2022-09-13T04:05:59;11.73;;;4.05;;
42632;SDS011;28261;53.304;-6.284;2022-09-13T04:08:04;12.98;;;4.22;;
42632;SDS011;28261;53.304;-6.284;2022-09-13T04:10:10;6.88;;;4.10;;
42632;SDS011;28261;53.304;-6.284;2022-09-13T04:12:15;10.95;;;4.13;;
42632;SDS011;28261;53.304;-6.284;2022-09-13T04:14:21;13.00;;;4.18;;
42632;SDS011;28261;53.304;-6.284;2022-09-13T04:16:27;7.63;;;4.07;;
42632;SDS011;28261;53.304;-6.284;2022-09-13T04:18:32;6.28;;;3.85;;
42632;SDS011;28261;53.304;-6.284;2022-09-13T04:20:36;7.15;;;3.60;;
42632;SDS011;28261;53.304;-6.284;2022-09-13T04:22:42;7.50;;;3.30;;
42632;SDS011;28261;53.304;-6.284;2022-09-13T04:24:46;5.15;;;3.40;;
42632;SDS011;28261;53.304;-6.284;2022-09-13T04:26:50;10.30;;;3.70;;
42632;SDS011;28261;53.304;-6.284;2022-09-13T04:28:53;11.20;;;4.18;;
42632;SDS011;28261;53.304;-6.284;2022-09-13T04:30:57;9.82;;;3.45;;
42632;SDS011;28261;53.304;-6.284;2022-09-13T04:33:01;11.75;;;3.80;;
42632;SDS011;28261;53.304;-6.284;2022-09-13T04:35:05;6.22;;;3.60;;
42632;SDS011;28261;53.304;-6.284;2022-09-13T04:37:09;9.38;;;3.78;;
42632;SDS011;28261;53.304;-6.284;2022-09-13T04:39:14;10.75;;;4.10;;
42632;SDS011;28261;53.304;-6.284;2022-09-13T04:41:17;9.68;;;4.32;;
42632;SDS011;28261;53.304;-6.284;2022-09-13T04:43:21;9.52;;;4.28;;
42632;SDS011;28261;53.304;-6.284;2022-09-13T04:45:25;15.23;;;4.45;;
42632;SDS011;28261;53.304;-6.284;2022-09-13T04:47:29;13.57;;;3.83;;
42632;SDS011;28261;53.304;-6.284;2022-09-13T04:49:32;10.80;;;3.92;;
42632;SDS011;28261;53.304;-6.284;2022-09-13T04:51:36;8.88;;;3.92;;
42632;SDS011;28261;53.304;-6.284;2022-09-13T04:53:40;9.00;;;3.72;;
42632;SDS011;28261;53.304;-6.284;2022-09-13T04:55:45;13.90;;;4.05;;
42632;SDS011;28261;53.304;-6.284;2022-09-13T04:57:51;14.07;;;4.78;;
42632;SDS011;28261;53.304;-6.284;2022-09-13T04:59:56;12.93;;;4.20;;
42632;SDS011;28261;53.304;-6.284;2022-09-13T05:01:59;9.90;;;4.40;;
42632;SDS011;28261;53.304;-6.284;2022-09-13T05:04:03;6.75;;;3.90;;
42632;SDS011;28261;53.304;-6.284;2022-09-13T05:06:09;8.00;;;4.07;;
42632;SDS011;28261;53.304;-6.284;2022-09-13T05:08:14;15.85;;;4.10;;
42632;SDS011;28261;53.304;-6.284;2022-09-13T05:10:18;12.93;;;3.47;;
42632;SDS011;28261;53.304;-6.284;2022-09-13T05:12:23;10.43;;;3.50;;
42632;SDS011;28261;53.304;-6.284;2022-09-13T05:14:27;8.27;;;4.00;;
42632;SDS011;28261;53.304;-6.284;2022-09-13T05:16:31;11.13;;;4.40;;
42632;SDS011;28261;53.304;-6.284;2022-09-13T05:18:35;19.13;;;4.65;;
42632;SDS011;28261;53.304;-6.284;2022-09-13T05:20:45;13.95;;;5.05;;
42632;SDS011;28261;53.304;-6.284;2022-09-13T05:22:49;13.52;;;4.43;;
42632;SDS011;28261;53.304;-6.284;2022-09-13T05:24:52;15.32;;;4.97;;
42632;SDS011;28261;53.304;-6.284;2022-09-13T05:26:56;15.13;;;4.53;;
42632;SDS011;28261;53.304;-6.284;2022-09-13T05:29:02;25.73;;;5.45;;
42632;SDS011;28261;53.304;-6.284;2022-09-13T05:31:07;18.33;;;4.10;;
42632;SDS011;28261;53.304;-6.284;2022-09-13T05:33:14;19.80;;;4.28;;
42632;SDS011;28261;53.304;-6.284;2022-09-13T05:35:18;24.55;;;4.57;;
42632;SDS011;28261;53.304;-6.284;2022-09-13T05:37:21;13.52;;;4.30;;
42632;SDS011;28261;53.304;-6.284;2022-09-13T05:39:25;23.65;;;4.18;;
42632;SDS011;28261;53.304;-6.284;2022-09-13T05:41:44;25.77;;;4.72;;
42632;SDS011;28261;53.304;-6.284;2022-09-13T05:43:48;21.63;;;3.70;;
42632;SDS011;28261;53.304;-6.284;2022-09-13T05:46:01;18.40;;;3.88;;
42632;SDS011;28261;53.304;-6.284;2022-09-13T05:48:05;14.07;;;4.22;;
42632;SDS011;28261;53.304;-6.284;2022-09-13T05:50:09;15.57;;;4.03;;
42632;SDS011;28261;53.304;-6.284;2022-09-13T05:52:33;9.80;;;3.17;;
42632;SDS011;28261;53.304;-6.284;2022-09-13T05:54:36;19.25;;;3.53;;
42632;SDS011;28261;53.304;-6.284;2022-09-13T05:56:40;9.90;;;3.30;;
42632;SDS011;28261;53.304;-6.284;2022-09-13T05:58:44;9.60;;;3.55;;
42632;SDS011;28261;53.304;-6.284;2022-09-13T06:00:51;23.60;;;3.45;;
42632;SDS011;28261;53.304;-6.284;2022-09-13T06:02:57;21.20;;;3.78;;
42632;SDS011;28261;53.304;-6.284;2022-09-13T06:05:01;33.55;;;4.07;;
42632;SDS011;28261;53.304;-6.284;2022-09-13T06:07:05;15.88;;;4.13;;
42632;SDS011;28261;53.304;-6.284;2022-09-13T06:09:09;21.83;;;3.88;;
42632;SDS011;28261;53.304;-6.284;2022-09-13T06:11:14;13.70;;;3.67;;
42632;SDS011;28261;53.304;-6.284;2022-09-13T06:13:17;13.73;;;3.90;;
42632;SDS011;28261;53.304;-6.284;2022-09-13T06:15:20;24.58;;;4.03;;
42632;SDS011;28261;53.304;-6.284;2022-09-13T06:17:24;20.52;;;4.03;;
42632;SDS011;28261;53.304;-6.284;2022-09-13T06:19:29;10.20;;;3.70;;
42632;SDS011;28261;53.304;-6.284;2022-09-13T06:21:33;16.75;;;3.88;;
42632;SDS011;28261;53.304;-6.284;2022-09-13T06:23:36;9.75;;;3.70;;
42632;SDS011;28261;53.304;-6.284;2022-09-13T06:25:40;17.45;;;4.22;;
42632;SDS011;28261;53.304;-6.284;2022-09-13T06:27:44;23.30;;;3.75;;
42632;SDS011;28261;53.304;-6.284;2022-09-13T06:29:50;19.27;;;3.75;;
42632;SDS011;28261;53.304;-6.284;2022-09-13T06:31:55;15.52;;;3.83;;
42632;SDS011;28261;53.304;-6.284;2022-09-13T06:33:59;28.35;;;4.35;;
42632;SDS011;28261;53.304;-6.284;2022-09-13T06:36:06;12.07;;;4.20;;
42632;SDS011;28261;53.304;-6.284;2022-09-13T06:38:11;20.85;;;4.45;;
42632;SDS011;28261;53.304;-6.284;2022-09-13T06:40:14;11.48;;;4.10;;
42632;SDS011;28261;53.304;-6.284;2022-09-13T06:42:25;12.93;;;4.90;;
42632;SDS011;28261;53.304;-6.284;2022-09-13T06:44:28;18.13;;;4.57;;
42632;SDS011;28261;53.304;-6.284;2022-09-13T06:46:33;28.40;;;5.60;;
42632;SDS011;28261;53.304;-6.284;2022-09-13T06:48:38;19.70;;;4.00;;
42632;SDS011;28261;53.304;-6.284;2022-09-13T06:50:42;13.57;;;4.65;;
42632;SDS011;28261;53.304;-6.284;2022-09-13T06:52:47;29.00;;;5.97;;
42632;SDS011;28261;53.304;-6.284;2022-09-13T06:54:51;17.25;;;3.83;;
42632;SDS011;28261;53.304;-6.284;2022-09-13T06:56:54;25.30;;;5.05;;
42632;SDS011;28261;53.304;-6.284;2022-09-13T06:59:05;18.70;;;5.38;;
42632;SDS011;28261;53.304;-6.284;2022-09-13T07:01:11;18.58;;;4.57;;
42632;SDS011;28261;53.304;-6.284;2022-09-13T07:03:17;29.05;;;4.45;;
42632;SDS011;28261;53.304;-6.284;2022-09-13T07:05:20;32.20;;;4.22;;
42632;SDS011;28261;53.304;-6.284;2022-09-13T07:07:25;21.88;;;4.35;;
42632;SDS011;28261;53.304;-6.284;2022-09-13T07:09:30;14.40;;;3.75;;
42632;SDS011;28261;53.304;-6.284;2022-09-13T07:11:36;24.40;;;4.65;;
42632;SDS011;28261;53.304;-6.284;2022-09-13T07:13:41;24.67;;;5.00;;
42632;SDS011;28261;53.304;-6.284;2022-09-13T07:15:45;20.58;;;4.30;;
42632;SDS011;28261;53.304;-6.284;2022-09-13T07:17:49;7.55;;;3.35;;
42632;SDS011;28261;53.304;-6.284;2022-09-13T07:19:52;18.15;;;3.35;;
42632;SDS011;28261;53.304;-6.284;2022-09-13T07:21:56;40.58;;;10.35;;
42632;SDS011;28261;53.304;-6.284;2022-09-13T07:24:00;20.08;;;4.38;;
42632;SDS011;28261;53.304;-6.284;2022-09-13T07:26:06;9.73;;;4.20;;
42632;SDS011;28261;53.304;-6.284;2022-09-13T07:28:10;16.85;;;3.40;;
42632;SDS011;28261;53.304;-6.284;2022-09-13T07:30:14;24.77;;;3.55;;
42632;SDS011;28261;53.304;-6.284;2022-09-13T07:32:17;15.00;;;3.75;;
42632;SDS011;28261;53.304;-6.284;2022-09-13T07:34:22;22.10;;;3.33;;
42632;SDS011;28261;53.304;-6.284;2022-09-13T07:36:27;18.33;;;3.47;;
42632;SDS011;28261;53.304;-6.284;2022-09-13T07:38:33;15.77;;;3.30;;
42632;SDS011;28261;53.304;-6.284;2022-09-13T07:40:38;11.23;;;3.28;;
42632;SDS011;28261;53.304;-6.284;2022-09-13T07:42:43;9.30;;;3.00;;
42632;SDS011;28261;53.304;-6.284;2022-09-13T07:44:47;8.50;;;2.70;;
42632;SDS011;28261;53.304;-6.284;2022-09-13T07:46:51;8.40;;;3.25;;
42632;SDS011;28261;53.304;-6.284;2022-09-13T07:48:55;13.43;;;2.80;;
42632;SDS011;28261;53.304;-6.284;2022-09-13T07:51:00;11.75;;;3.08;;
42632;SDS011;28261;53.304;-6.284;2022-09-13T07:53:05;16.35;;;2.92;;
42632;SDS011;28261;53.304;-6.284;2022-09-13T07:55:09;10.02;;;3.25;;
42632;SDS011;28261;53.304;-6.284;2022-09-13T07:57:13;9.48;;;2.70;;
42632;SDS011;28261;53.304;-6.284;2022-09-13T07:59:18;12.93;;;3.30;;
42632;SDS011;28261;53.304;-6.284;2022-09-13T08:01:23;8.88;;;3.00;;
42632;SDS011;28261;53.304;-6.284;2022-09-13T08:03:28;14.70;;;3.10;;
42632;SDS011;28261;53.304;-6.284;2022-09-13T08:05:32;15.32;;;3.15;;
42632;SDS011;28261;53.304;-6.284;2022-09-13T08:07:41;8.65;;;2.80;;
42632;SDS011;28261;53.304;-6.284;2022-09-13T08:09:45;10.27;;;2.60;;
42632;SDS011;28261;53.304;-6.284;2022-09-13T08:11:49;13.48;;;3.17;;
42632;SDS011;28261;53.304;-6.284;2022-09-13T08:13:54;20.52;;;3.53;;
42632;SDS011;28261;53.304;-6.284;2022-09-13T08:16:02;17.75;;;3.40;;
42632;SDS011;28261;53.304;-6.284;2022-09-13T08:18:07;30.63;;;4.22;;
42632;SDS011;28261;53.304;-6.284;2022-09-13T08:20:11;8.95;;;3.22;;
42632;SDS011;28261;53.304;-6.284;2022-09-13T08:22:15;27.90;;;5.45;;
42632;SDS011;28261;53.304;-6.284;2022-09-13T08:24:19;18.88;;;3.80;;
42632;SDS011;28261;53.304;-6.284;2022-09-13T08:26:24;30.52;;;3.75;;
42632;SDS011;28261;53.304;-6.284;2022-09-13T08:28:28;13.23;;;3.40;;
42632;SDS011;28261;53.304;-6.284;2022-09-13T08:30:33;16.48;;;3.20;;
42632;SDS011;28261;53.304;-6.284;2022-09-13T08:32:39;26.45;;;3.72;;
42632;SDS011;28261;53.304;-6.284;2022-09-13T08:34:43;12.90;;;2.83;;
42632;SDS011;28261;53.304;-6.284;2022-09-13T08:36:47;16.42;;;3.03;;
42632;SDS011;28261;53.304;-6.284;2022-09-13T08:38:52;15.50;;;3.17;;
42632;SDS011;28261;53.304;-6.284;2022-09-13T08:40:59;13.25;;;3.03;;
42632;SDS011;28261;53.304;-6.284;2022-09-13T08:43:10;12.88;;;2.67;;
42632;SDS011;28261;53.304;-6.284;2022-09-13T08:45:24;14.77;;;3.15;;
42632;SDS011;28261;53.304;-6.284;2022-09-13T08:47:37;20.02;;;3.58;;
42632;SDS011;28261;53.304;-6.284;2022-09-13T08:49:46;24.63;;;3.53;;
42632;SDS011;28261;53.304;-6.284;2022-09-13T08:51:53;19.25;;;3.63;;
42632;SDS011;28261;53.304;-6.284;2022-09-13T08:54:01;10.20;;;3.15;;
42632;SDS011;28261;53.304;-6.284;2022-09-13T08:56:06;14.35;;;3.22;;
42632;SDS011;28261;53.304;-6.284;2022-09-13T08:58:18;17.13;;;3.55;;
42632;SDS011;28261;53.304;-6.284;2022-09-13T09:00:34;11.50;;;3.53;;
42632;SDS011;28261;53.304;-6.284;2022-09-13T09:02:51;17.27;;;3.50;;
42632;SDS011;28261;53.304;-6.284;2022-09-13T09:05:04;12.88;;;3.45;;
42632;SDS011;28261;53.304;-6.284;2022-09-13T09:07:18;26.77;;;3.88;;
42632;SDS011;28261;53.304;-6.284;2022-09-13T09:09:31;17.42;;;3.35;;
42632;SDS011;28261;53.304;-6.284;2022-09-13T09:11:43;32.10;;;3.35;;
42632;SDS011;28261;53.304;-6.284;2022-09-13T09:13:54;13.35;;;3.38;;
42632;SDS011;28261;53.304;-6.284;2022-09-13T09:16:06;12.82;;;3.53;;
42632;SDS011;28261;53.304;-6.284;2022-09-13T09:18:24;17.80;;;3.60;;
42632;SDS011;28261;53.304;-6.284;2022-09-13T09:20:35;12.63;;;2.80;;
42632;SDS011;28261;53.304;-6.284;2022-09-13T09:22:43;8.40;;;2.58;;
42632;SDS011;28261;53.304;-6.284;2022-09-13T09:24:50;15.65;;;2.60;;
42632;SDS011;28261;53.304;-6.284;2022-09-13T09:26:57;17.98;;;2.97;;
42632;SDS011;28261;53.304;-6.284;2022-09-13T09:29:05;14.65;;;3.22;;
42632;SDS011;28261;53.304;-6.284;2022-09-13T09:31:26;12.15;;;2.92;;
42632;SDS011;28261;53.304;-6.284;2022-09-13T09:33:43;13.80;;;3.55;;
42632;SDS011;28261;53.304;-6.284;2022-09-13T09:35:57;9.25;;;3.15;;
42632;SDS011;28261;53.304;-6.284;2022-09-13T09:38:15;14.50;;;3.20;;
42632;SDS011;28261;53.304;-6.284;2022-09-13T09:40:32;12.50;;;2.97;;
42632;SDS011;28261;53.304;-6.284;2022-09-13T09:42:40;11.32;;;2.90;;
42632;SDS011;28261;53.304;-6.284;2022-09-13T09:44:46;12.43;;;3.63;;
42632;SDS011;28261;53.304;-6.284;2022-09-13T09:46:54;10.80;;;3.10;;
42632;SDS011;28261;53.304;-6.284;2022-09-13T09:49:04;10.38;;;3.10;;
42632;SDS011;28261;53.304;-6.284;2022-09-13T09:51:38;16.10;;;3.10;;
42632;SDS011;28261;53.304;-6.284;2022-09-13T09:53:43;15.00;;;2.70;;
42632;SDS011;28261;53.304;-6.284;2022-09-13T09:55:50;16.95;;;3.95;;
42632;SDS011;28261;53.304;-6.284;2022-09-13T09:57:58;14.07;;;2.05;;
42632;SDS011;28261;53.304;-6.284;2022-09-13T10:00:09;9.93;;;1.35;;
42632;SDS011;28261;53.304;-6.284;2022-09-13T10:02:16;12.90;;;1.58;;
42632;SDS011;28261;53.304;-6.284;2022-09-13T10:04:23;8.65;;;1.40;;
42632;SDS011;28261;53.304;-6.284;2022-09-13T10:06:28;10.15;;;3.60;;
42632;SDS011;28261;53.304;-6.284;2022-09-13T10:08:34;8.10;;;1.63;;
42632;SDS011;28261;53.304;-6.284;2022-09-13T10:10:41;9.32;;;2.78;;
42632;SDS011;28261;53.304;-6.284;2022-09-13T10:12:48;9.88;;;1.77;;
42632;SDS011;28261;53.304;-6.284;2022-09-13T10:15:02;11.07;;;2.30;;
42632;SDS011;28261;53.304;-6.284;2022-09-13T10:17:15;8.00;;;1.30;;
42632;SDS011;28261;53.304;-6.284;2022-09-13T10:19:24;17.30;;;1.98;;
42632;SDS011;28261;53.304;-6.284;2022-09-13T10:21:29;9.40;;;1.38;;
42632;SDS011;28261;53.304;-6.284;2022-09-13T10:23:33;8.30;;;1.67;;
42632;SDS011;28261;53.304;-6.284;2022-09-13T10:25:38;7.05;;;1.30;;
42632;SDS011;28261;53.304;-6.284;2022-09-13T10:27:49;8.48;;;1.58;;
42632;SDS011;28261;53.304;-6.284;2022-09-13T10:29:58;8.25;;;1.85;;
42632;SDS011;28261;53.304;-6.284;2022-09-13T10:32:06;6.88;;;1.05;;
42632;SDS011;28261;53.304;-6.284;2022-09-13T10:34:15;18.48;;;1.20;;
42632;SDS011;28261;53.304;-6.284;2022-09-13T10:36:25;16.65;;;1.70;;
42632;SDS011;28261;53.304;-6.284;2022-09-13T10:38:55;18.10;;;2.83;;
42632;SDS011;28261;53.304;-6.284;2022-09-13T10:41:02;12.25;;;3.28;;
42632;SDS011;28261;53.304;-6.284;2022-09-13T10:43:13;9.07;;;2.13;;
42632;SDS011;28261;53.304;-6.284;2022-09-13T10:45:21;12.00;;;1.90;;
42632;SDS011;28261;53.304;-6.284;2022-09-13T10:47:29;10.43;;;1.60;;
42632;SDS011;28261;53.304;-6.284;2022-09-13T10:49:37;10.77;;;1.52;;
42632;SDS011;28261;53.304;-6.284;2022-09-13T10:51:46;12.05;;;1.40;;
42632;SDS011;28261;53.304;-6.284;2022-09-13T10:53:50;14.82;;;1.42;;
42632;SDS011;28261;53.304;-6.284;2022-09-13T10:56:18;5.38;;;1.08;;
42632;SDS011;28261;53.304;-6.284;2022-09-13T10:58:23;20.20;;;2.03;;
42632;SDS011;28261;53.304;-6.284;2022-09-13T11:00:31;15.82;;;1.80;;
42632;SDS011;28261;53.304;-6.284;2022-09-13T11:02:45;8.43;;;1.75;;
42632;SDS011;28261;53.304;-6.284;2022-09-13T11:05:07;14.93;;;1.63;;
42632;SDS011;28261;53.304;-6.284;2022-09-13T11:07:31;9.07;;;1.30;;
42632;SDS011;28261;53.304;-6.284;2022-09-13T11:09:47;12.05;;;2.65;;
42632;SDS011;28261;53.304;-6.284;2022-09-13T11:11:59;8.35;;;1.75;;
42632;SDS011;28261;53.304;-6.284;2022-09-13T11:14:18;11.02;;;1.33;;
42632;SDS011;28261;53.304;-6.284;2022-09-13T11:16:36;9.07;;;1.77;;
42632;SDS011;28261;53.304;-6.284;2022-09-13T11:18:53;12.50;;;1.70;;
42632;SDS011;28261;53.304;-6.284;2022-09-13T11:21:25;7.20;;;1.30;;
42632;SDS011;28261;53.304;-6.284;2022-09-13T11:23:50;4.60;;;1.25;;
42632;SDS011;28261;53.304;-6.284;2022-09-13T11:26:08;12.07;;;1.63;;
42632;SDS011;28261;53.304;-6.284;2022-09-13T11:28:29;14.25;;;1.85;;
42632;SDS011;28261;53.304;-6.284;2022-09-13T11:30:46;10.80;;;1.83;;
42632;SDS011;28261;53.304;-6.284;2022-09-13T11:33:10;12.70;;;1.40;;
42632;SDS011;28261;53.304;-6.284;2022-09-13T11:35:33;7.10;;;1.40;;
42632;SDS011;28261;53.304;-6.284;2022-09-13T11:37:47;8.77;;;1.38;;
42632;SDS011;28261;53.304;-6.284;2022-09-13T11:40:05;9.73;;;1.48;;
42632;SDS011;28261;53.304;-6.284;2022-09-13T11:42:27;7.38;;;1.20;;
42632;SDS011;28261;53.304;-6.284;2022-09-13T11:47:33;5.75;;;1.23;;
42632;SDS011;28261;53.304;-6.284;2022-09-13T11:49:55;9.90;;;1.30;;
42632;SDS011;28261;53.304;-6.284;2022-09-13T11:52:14;10.05;;;1.85;;
42632;SDS011;28261;53.304;-6.284;2022-09-13T11:54:34;9.48;;;1.33;;
42632;SDS011;28261;53.304;-6.284;2022-09-13T11:56:56;17.08;;;2.40;;
42632;SDS011;28261;53.304;-6.284;2022-09-13T11:59:09;8.00;;;1.70;;
42632;SDS011;28261;53.304;-6.284;2022-09-13T12:01:22;7.57;;;1.40;;
42632;SDS011;28261;53.304;-6.284;2022-09-13T12:03:32;10.45;;;2.42;;
42632;SDS011;28261;53.304;-6.284;2022-09-13T12:05:44;13.45;;;1.50;;
42632;SDS011;28261;53.304;-6.284;2022-09-13T12:07:51;8.43;;;1.77;;
42632;SDS011;28261;53.304;-6.284;2022-09-13T12:10:00;7.22;;;1.20;;
42632;SDS011;28261;53.304;-6.284;2022-09-13T12:12:10;10.40;;;1.35;;
42632;SDS011;28261;53.304;-6.284;2022-09-13T12:14:16;5.82;;;0.90;;
42632;SDS011;28261;53.304;-6.284;2022-09-13T12:16:25;8.93;;;1.42;;
42632;SDS011;28261;53.304;-6.284;2022-09-13T12:18:39;10.45;;;1.60;;
42632;SDS011;28261;53.304;-6.284;2022-09-13T12:20:47;6.40;;;0.93;;
42632;SDS011;28261;53.304;-6.284;2022-09-13T12:22:53;8.73;;;1.50;;
42632;SDS011;28261;53.304;-6.284;2022-09-13T12:25:01;7.35;;;1.27;;
42632;SDS011;28261;53.304;-6.284;2022-09-13T12:27:10;8.15;;;0.90;;
42632;SDS011;28261;53.304;-6.284;2022-09-13T12:29:26;7.95;;;1.27;;
42632;SDS011;28261;53.304;-6.284;2022-09-13T12:33:42;4.53;;;1.20;;
42632;SDS011;28261;53.304;-6.284;2022-09-13T12:38:41;7.07;;;1.33;;
42632;SDS011;28261;53.304;-6.284;2022-09-13T12:41:25;4.85;;;1.17;;
42632;SDS011;28261;53.304;-6.284;2022-09-13T12:43:44;6.80;;;1.48;;
42632;SDS011;28261;53.304;-6.284;2022-09-13T12:46:02;7.10;;;1.20;;
42632;SDS011;28261;53.304;-6.284;2022-09-13T12:50:58;7.55;;;1.20;;